sensor_id;sensor_type;location;lat;lon;timestamp;P1;durP1;ratioP1;P2;durP2;ratioP2
4367;SDS011;43455;49.740;10.154;2022-07-23T00:00:54;9.95;;;6.18;;
4367;SDS011;43455;49.740;10.154;2022-07-23T00:03:20;7.75;;;5.93;;
4367;SDS011;43455;49.740;10.154;2022-07-23T00:05:45;9.88;;;6.05;;
4367;SDS011;43455;49.740;10.154;2022-07-23T00:08:11;11.70;;;5.97;;
4367;SDS011;43455;49.740;10.154;2022-07-23T00:10:37;10.05;;;6.30;;
4367;SDS011;43455;49.740;10.154;2022-07-23T00:15:32;8.93;;;6.25;;
4367;SDS011;43455;49.740;10.154;2022-07-23T00:17:58;11.35;;;7.30;;
4367;SDS011;43455;49.740;10.154;2022-07-23T00:20:23;9.82;;;6.18;;
4367;SDS011;43455;49.740;10.154;2022-07-23T00:22:50;9.35;;;6.15;;
4367;SDS011;43455;49.740;10.154;2022-07-23T00:25:17;7.90;;;6.40;;
4367;SDS011;43455;49.740;10.154;2022-07-23T00:27:42;10.98;;;6.78;;
4367;SDS011;43455;49.740;10.154;2022-07-23T00:30:08;8.35;;;6.53;;
4367;SDS011;43455;49.740;10.154;2022-07-23T00:32:47;7.53;;;6.15;;
4367;SDS011;43455;49.740;10.154;2022-07-23T00:35:15;8.10;;;5.93;;
4367;SDS011;43455;49.740;10.154;2022-07-23T00:37:41;10.10;;;6.63;;
4367;SDS011;43455;49.740;10.154;2022-07-23T00:40:07;20.02;;;6.75;;
4367;SDS011;43455;49.740;10.154;2022-07-23T00:42:34;10.93;;;7.15;;
4367;SDS011;43455;49.740;10.154;2022-07-23T00:44:59;8.45;;;7.03;;
4367;SDS011;43455;49.740;10.154;2022-07-23T00:47:25;8.90;;;6.78;;
4367;SDS011;43455;49.740;10.154;2022-07-23T00:49:51;8.52;;;6.53;;
4367;SDS011;43455;49.740;10.154;2022-07-23T00:52:17;8.88;;;7.45;;
4367;SDS011;43455;49.740;10.154;2022-07-23T00:54:43;9.70;;;6.22;;
4367;SDS011;43455;49.740;10.154;2022-07-23T00:57:09;10.45;;;6.80;;
4367;SDS011;43455;49.740;10.154;2022-07-23T00:59:34;7.72;;;6.47;;
4367;SDS011;43455;49.740;10.154;2022-07-23T01:02:00;10.13;;;6.20;;
4367;SDS011;43455;49.740;10.154;2022-07-23T01:04:26;10.55;;;6.90;;
4367;SDS011;43455;49.740;10.154;2022-07-23T01:06:51;8.93;;;6.15;;
4367;SDS011;43455;49.740;10.154;2022-07-23T01:09:17;6.80;;;6.13;;
4367;SDS011;43455;49.740;10.154;2022-07-23T01:11:44;8.90;;;6.70;;
4367;SDS011;43455;49.740;10.154;2022-07-23T01:14:14;11.45;;;6.53;;
4367;SDS011;43455;49.740;10.154;2022-07-23T01:16:42;7.95;;;6.78;;
4367;SDS011;43455;49.740;10.154;2022-07-23T01:19:09;9.43;;;7.63;;
4367;SDS011;43455;49.740;10.154;2022-07-23T01:21:38;10.15;;;6.85;;
4367;SDS011;43455;49.740;10.154;2022-07-23T01:24:08;10.18;;;7.20;;
4367;SDS011;43455;49.740;10.154;2022-07-23T01:26:38;9.70;;;7.45;;
4367;SDS011;43455;49.740;10.154;2022-07-23T01:29:04;12.82;;;7.38;;
4367;SDS011;43455;49.740;10.154;2022-07-23T01:31:31;8.18;;;6.93;;
4367;SDS011;43455;49.740;10.154;2022-07-23T01:33:57;19.05;;;6.60;;
4367;SDS011;43455;49.740;10.154;2022-07-23T01:36:23;7.78;;;6.97;;
4367;SDS011;43455;49.740;10.154;2022-07-23T01:38:49;12.68;;;7.97;;
4367;SDS011;43455;49.740;10.154;2022-07-23T01:41:15;10.15;;;6.88;;
4367;SDS011;43455;49.740;10.154;2022-07-23T01:43:42;10.82;;;6.95;;
4367;SDS011;43455;49.740;10.154;2022-07-23T01:48:39;9.13;;;6.55;;
4367;SDS011;43455;49.740;10.154;2022-07-23T01:51:24;7.45;;;6.57;;
4367;SDS011;43455;49.740;10.154;2022-07-23T01:53:57;10.15;;;8.13;;
4367;SDS011;43455;49.740;10.154;2022-07-23T01:56:22;11.38;;;8.05;;
4367;SDS011;43455;49.740;10.154;2022-07-23T01:58:48;12.10;;;7.38;;
4367;SDS011;43455;49.740;10.154;2022-07-23T02:03:55;15.93;;;8.85;;
4367;SDS011;43455;49.740;10.154;2022-07-23T02:06:21;11.43;;;7.50;;
4367;SDS011;43455;49.740;10.154;2022-07-23T02:08:48;9.07;;;8.15;;
4367;SDS011;43455;49.740;10.154;2022-07-23T02:11:14;15.73;;;8.48;;
4367;SDS011;43455;49.740;10.154;2022-07-23T02:13:40;13.75;;;9.13;;
4367;SDS011;43455;49.740;10.154;2022-07-23T02:16:05;13.77;;;8.68;;
4367;SDS011;43455;49.740;10.154;2022-07-23T02:18:32;13.25;;;7.95;;
4367;SDS011;43455;49.740;10.154;2022-07-23T02:20:57;12.13;;;9.07;;
4367;SDS011;43455;49.740;10.154;2022-07-23T02:23:23;17.92;;;8.95;;
4367;SDS011;43455;49.740;10.154;2022-07-23T02:25:49;10.80;;;9.25;;
4367;SDS011;43455;49.740;10.154;2022-07-23T02:28:15;11.15;;;9.18;;
4367;SDS011;43455;49.740;10.154;2022-07-23T02:30:41;11.68;;;8.45;;
4367;SDS011;43455;49.740;10.154;2022-07-23T02:33:07;17.10;;;9.75;;
4367;SDS011;43455;49.740;10.154;2022-07-23T02:35:33;12.00;;;8.60;;
4367;SDS011;43455;49.740;10.154;2022-07-23T02:38:00;12.45;;;9.80;;
4367;SDS011;43455;49.740;10.154;2022-07-23T02:40:28;11.75;;;9.43;;
4367;SDS011;43455;49.740;10.154;2022-07-23T02:42:54;16.15;;;10.13;;
4367;SDS011;43455;49.740;10.154;2022-07-23T02:45:19;15.60;;;9.88;;
4367;SDS011;43455;49.740;10.154;2022-07-23T02:47:45;15.68;;;10.23;;
4367;SDS011;43455;49.740;10.154;2022-07-23T02:50:11;13.55;;;8.65;;
4367;SDS011;43455;49.740;10.154;2022-07-23T02:52:38;10.32;;;8.48;;
4367;SDS011;43455;49.740;10.154;2022-07-23T02:57:30;14.02;;;9.27;;
4367;SDS011;43455;49.740;10.154;2022-07-23T02:59:56;12.53;;;9.70;;
4367;SDS011;43455;49.740;10.154;2022-07-23T03:02:22;18.83;;;10.35;;
4367;SDS011;43455;49.740;10.154;2022-07-23T03:04:49;15.07;;;9.40;;
4367;SDS011;43455;49.740;10.154;2022-07-23T03:07:16;15.68;;;8.65;;
4367;SDS011;43455;49.740;10.154;2022-07-23T03:09:42;14.20;;;9.95;;
4367;SDS011;43455;49.740;10.154;2022-07-23T03:12:08;13.65;;;9.57;;
4367;SDS011;43455;49.740;10.154;2022-07-23T03:14:34;13.00;;;10.00;;
4367;SDS011;43455;49.740;10.154;2022-07-23T03:16:59;13.48;;;9.65;;
4367;SDS011;43455;49.740;10.154;2022-07-23T03:19:25;15.32;;;9.75;;
4367;SDS011;43455;49.740;10.154;2022-07-23T03:21:51;15.88;;;10.65;;
4367;SDS011;43455;49.740;10.154;2022-07-23T03:24:17;13.52;;;9.63;;
4367;SDS011;43455;49.740;10.154;2022-07-23T03:26:43;14.00;;;10.00;;
4367;SDS011;43455;49.740;10.154;2022-07-23T03:31:35;15.30;;;10.15;;
4367;SDS011;43455;49.740;10.154;2022-07-23T03:34:01;12.73;;;10.93;;
4367;SDS011;43455;49.740;10.154;2022-07-23T03:36:28;16.13;;;9.90;;
4367;SDS011;43455;49.740;10.154;2022-07-23T03:38:55;16.08;;;9.88;;
4367;SDS011;43455;49.740;10.154;2022-07-23T03:41:20;14.77;;;9.33;;
4367;SDS011;43455;49.740;10.154;2022-07-23T03:43:46;15.35;;;9.30;;
4367;SDS011;43455;49.740;10.154;2022-07-23T03:46:12;12.80;;;10.00;;
4367;SDS011;43455;49.740;10.154;2022-07-23T03:48:38;10.82;;;8.88;;
4367;SDS011;43455;49.740;10.154;2022-07-23T03:51:03;18.75;;;9.25;;
4367;SDS011;43455;49.740;10.154;2022-07-23T03:53:29;13.77;;;9.32;;
4367;SDS011;43455;49.740;10.154;2022-07-23T03:55:55;15.85;;;9.98;;
4367;SDS011;43455;49.740;10.154;2022-07-23T03:58:22;11.38;;;9.05;;
4367;SDS011;43455;49.740;10.154;2022-07-23T04:00:47;17.47;;;10.10;;
4367;SDS011;43455;49.740;10.154;2022-07-23T04:03:14;11.55;;;9.27;;
4367;SDS011;43455;49.740;10.154;2022-07-23T04:05:41;13.07;;;9.43;;
4367;SDS011;43455;49.740;10.154;2022-07-23T04:08:11;15.95;;;10.77;;
4367;SDS011;43455;49.740;10.154;2022-07-23T04:10:39;11.55;;;9.45;;
4367;SDS011;43455;49.740;10.154;2022-07-23T04:13:07;12.80;;;9.45;;
4367;SDS011;43455;49.740;10.154;2022-07-23T04:15:33;12.02;;;9.00;;
4367;SDS011;43455;49.740;10.154;2022-07-23T04:17:58;20.38;;;9.50;;
4367;SDS011;43455;49.740;10.154;2022-07-23T04:20:33;14.10;;;8.60;;
4367;SDS011;43455;49.740;10.154;2022-07-23T04:23:01;11.48;;;7.75;;
4367;SDS011;43455;49.740;10.154;2022-07-23T04:25:27;11.40;;;8.98;;
4367;SDS011;43455;49.740;10.154;2022-07-23T04:27:53;12.10;;;8.55;;
4367;SDS011;43455;49.740;10.154;2022-07-23T04:30:19;14.85;;;8.75;;
4367;SDS011;43455;49.740;10.154;2022-07-23T04:32:44;19.50;;;9.52;;
4367;SDS011;43455;49.740;10.154;2022-07-23T04:35:20;15.07;;;10.45;;
4367;SDS011;43455;49.740;10.154;2022-07-23T04:37:46;12.10;;;7.80;;
4367;SDS011;43455;49.740;10.154;2022-07-23T04:40:13;12.85;;;8.27;;
4367;SDS011;43455;49.740;10.154;2022-07-23T04:42:39;15.40;;;7.55;;
4367;SDS011;43455;49.740;10.154;2022-07-23T04:45:05;13.07;;;8.90;;
4367;SDS011;43455;49.740;10.154;2022-07-23T04:49:58;11.00;;;8.55;;
4367;SDS011;43455;49.740;10.154;2022-07-23T04:52:24;10.23;;;7.63;;
4367;SDS011;43455;49.740;10.154;2022-07-23T04:54:50;11.18;;;8.05;;
4367;SDS011;43455;49.740;10.154;2022-07-23T04:57:16;8.57;;;7.03;;
4367;SDS011;43455;49.740;10.154;2022-07-23T05:03:10;11.43;;;7.97;;
4367;SDS011;43455;49.740;10.154;2022-07-23T05:05:36;11.25;;;7.63;;
4367;SDS011;43455;49.740;10.154;2022-07-23T05:08:11;10.18;;;7.20;;
4367;SDS011;43455;49.740;10.154;2022-07-23T05:10:38;11.07;;;7.85;;
4367;SDS011;43455;49.740;10.154;2022-07-23T05:13:04;10.23;;;8.40;;
4367;SDS011;43455;49.740;10.154;2022-07-23T05:15:30;11.43;;;7.85;;
4367;SDS011;43455;49.740;10.154;2022-07-23T05:17:56;11.52;;;8.05;;
4367;SDS011;43455;49.740;10.154;2022-07-23T05:20:22;13.95;;;8.23;;
4367;SDS011;43455;49.740;10.154;2022-07-23T05:22:51;10.63;;;7.75;;
4367;SDS011;43455;49.740;10.154;2022-07-23T05:25:16;9.93;;;8.27;;
4367;SDS011;43455;49.740;10.154;2022-07-23T05:27:42;18.73;;;9.43;;
4367;SDS011;43455;49.740;10.154;2022-07-23T05:30:08;13.27;;;7.72;;
4367;SDS011;43455;49.740;10.154;2022-07-23T05:36:05;12.63;;;7.90;;
4367;SDS011;43455;49.740;10.154;2022-07-23T05:38:34;11.48;;;7.00;;
4367;SDS011;43455;49.740;10.154;2022-07-23T05:41:01;9.80;;;7.88;;
4367;SDS011;43455;49.740;10.154;2022-07-23T05:43:28;7.88;;;6.93;;
4367;SDS011;43455;49.740;10.154;2022-07-23T05:49:36;12.45;;;7.30;;
4367;SDS011;43455;49.740;10.154;2022-07-23T05:52:20;9.77;;;8.38;;
4367;SDS011;43455;49.740;10.154;2022-07-23T05:57:39;11.93;;;8.40;;
4367;SDS011;43455;49.740;10.154;2022-07-23T06:00:07;10.25;;;8.25;;
4367;SDS011;43455;49.740;10.154;2022-07-23T06:02:39;11.35;;;7.25;;
4367;SDS011;43455;49.740;10.154;2022-07-23T06:07:46;8.45;;;6.38;;
4367;SDS011;43455;49.740;10.154;2022-07-23T06:10:13;16.33;;;7.60;;
4367;SDS011;43455;49.740;10.154;2022-07-23T06:12:39;11.52;;;7.45;;
4367;SDS011;43455;49.740;10.154;2022-07-23T06:15:06;10.35;;;6.95;;
4367;SDS011;43455;49.740;10.154;2022-07-23T06:17:33;11.30;;;7.05;;
4367;SDS011;43455;49.740;10.154;2022-07-23T06:22:41;11.18;;;8.05;;
4367;SDS011;43455;49.740;10.154;2022-07-23T06:25:07;12.23;;;7.70;;
4367;SDS011;43455;49.740;10.154;2022-07-23T06:27:33;8.75;;;7.30;;
4367;SDS011;43455;49.740;10.154;2022-07-23T06:29:59;8.90;;;7.30;;
4367;SDS011;43455;49.740;10.154;2022-07-23T06:32:25;9.35;;;8.32;;
4367;SDS011;43455;49.740;10.154;2022-07-23T06:34:50;10.35;;;7.55;;
4367;SDS011;43455;49.740;10.154;2022-07-23T06:37:19;10.25;;;7.70;;
4367;SDS011;43455;49.740;10.154;2022-07-23T06:39:45;10.48;;;7.38;;
4367;SDS011;43455;49.740;10.154;2022-07-23T06:42:11;10.23;;;6.60;;
4367;SDS011;43455;49.740;10.154;2022-07-23T06:44:42;12.10;;;8.32;;
4367;SDS011;43455;49.740;10.154;2022-07-23T06:47:10;9.07;;;8.15;;
4367;SDS011;43455;49.740;10.154;2022-07-23T06:49:35;10.40;;;8.73;;
4367;SDS011;43455;49.740;10.154;2022-07-23T06:52:01;12.20;;;9.68;;
4367;SDS011;43455;49.740;10.154;2022-07-23T06:54:27;10.98;;;9.88;;
4367;SDS011;43455;49.740;10.154;2022-07-23T06:56:53;22.95;;;11.30;;
4367;SDS011;43455;49.740;10.154;2022-07-23T06:59:18;14.10;;;10.57;;
4367;SDS011;43455;49.740;10.154;2022-07-23T07:01:44;14.17;;;9.93;;
4367;SDS011;43455;49.740;10.154;2022-07-23T07:04:10;14.02;;;10.98;;
4367;SDS011;43455;49.740;10.154;2022-07-23T07:06:35;17.48;;;10.95;;
4367;SDS011;43455;49.740;10.154;2022-07-23T07:09:01;18.63;;;10.57;;
4367;SDS011;43455;49.740;10.154;2022-07-23T07:11:27;14.52;;;11.43;;
4367;SDS011;43455;49.740;10.154;2022-07-23T07:13:53;12.77;;;10.53;;
4367;SDS011;43455;49.740;10.154;2022-07-23T07:16:18;16.33;;;10.93;;
4367;SDS011;43455;49.740;10.154;2022-07-23T07:18:44;15.55;;;11.80;;
4367;SDS011;43455;49.740;10.154;2022-07-23T07:21:10;13.85;;;10.73;;
4367;SDS011;43455;49.740;10.154;2022-07-23T07:23:35;11.77;;;10.13;;
4367;SDS011;43455;49.740;10.154;2022-07-23T07:26:01;11.07;;;8.88;;
4367;SDS011;43455;49.740;10.154;2022-07-23T07:28:27;12.77;;;9.95;;
4367;SDS011;43455;49.740;10.154;2022-07-23T07:30:52;10.02;;;8.73;;
4367;SDS011;43455;49.740;10.154;2022-07-23T07:33:18;10.50;;;8.88;;
4367;SDS011;43455;49.740;10.154;2022-07-23T07:35:44;11.02;;;8.88;;
4367;SDS011;43455;49.740;10.154;2022-07-23T07:38:10;14.03;;;9.67;;
4367;SDS011;43455;49.740;10.154;2022-07-23T07:40:35;10.45;;;9.35;;
4367;SDS011;43455;49.740;10.154;2022-07-23T07:43:01;10.40;;;8.45;;
4367;SDS011;43455;49.740;10.154;2022-07-23T07:45:28;11.68;;;8.80;;
4367;SDS011;43455;49.740;10.154;2022-07-23T07:47:54;10.30;;;9.20;;
4367;SDS011;43455;49.740;10.154;2022-07-23T07:50:20;14.95;;;11.52;;
4367;SDS011;43455;49.740;10.154;2022-07-23T07:52:47;14.77;;;9.32;;
4367;SDS011;43455;49.740;10.154;2022-07-23T07:55:12;12.30;;;9.27;;
4367;SDS011;43455;49.740;10.154;2022-07-23T07:57:38;12.35;;;8.52;;
4367;SDS011;43455;49.740;10.154;2022-07-23T08:00:05;11.73;;;10.40;;
4367;SDS011;43455;49.740;10.154;2022-07-23T08:05:07;11.02;;;9.20;;
4367;SDS011;43455;49.740;10.154;2022-07-23T08:07:33;14.85;;;10.13;;
4367;SDS011;43455;49.740;10.154;2022-07-23T08:09:58;14.00;;;9.85;;
4367;SDS011;43455;49.740;10.154;2022-07-23T08:12:24;14.93;;;8.77;;
4367;SDS011;43455;49.740;10.154;2022-07-23T08:17:18;11.90;;;8.88;;
4367;SDS011;43455;49.740;10.154;2022-07-23T08:19:44;16.37;;;9.60;;
4367;SDS011;43455;49.740;10.154;2022-07-23T08:22:13;13.38;;;9.73;;
4367;SDS011;43455;49.740;10.154;2022-07-23T08:24:38;13.68;;;9.27;;
4367;SDS011;43455;49.740;10.154;2022-07-23T08:27:04;11.02;;;8.40;;
4367;SDS011;43455;49.740;10.154;2022-07-23T08:29:30;10.60;;;8.00;;
4367;SDS011;43455;49.740;10.154;2022-07-23T08:31:55;9.30;;;7.70;;
4367;SDS011;43455;49.740;10.154;2022-07-23T08:34:21;10.48;;;8.35;;
4367;SDS011;43455;49.740;10.154;2022-07-23T08:36:47;13.18;;;8.52;;
4367;SDS011;43455;49.740;10.154;2022-07-23T08:39:12;9.32;;;7.70;;
4367;SDS011;43455;49.740;10.154;2022-07-23T08:41:39;9.50;;;8.10;;
4367;SDS011;43455;49.740;10.154;2022-07-23T08:44:07;9.55;;;7.68;;
4367;SDS011;43455;49.740;10.154;2022-07-23T08:46:32;11.50;;;8.32;;
4367;SDS011;43455;49.740;10.154;2022-07-23T08:51:25;11.35;;;8.68;;
4367;SDS011;43455;49.740;10.154;2022-07-23T08:53:52;10.50;;;8.30;;
4367;SDS011;43455;49.740;10.154;2022-07-23T08:56:18;10.38;;;8.85;;
4367;SDS011;43455;49.740;10.154;2022-07-23T08:58:43;9.13;;;7.70;;
4367;SDS011;43455;49.740;10.154;2022-07-23T09:01:09;10.85;;;8.50;;
4367;SDS011;43455;49.740;10.154;2022-07-23T09:03:36;13.45;;;8.60;;
4367;SDS011;43455;49.740;10.154;2022-07-23T09:06:03;8.80;;;7.13;;
4367;SDS011;43455;49.740;10.154;2022-07-23T09:19:00;10.70;;;7.18;;
4367;SDS011;43455;49.740;10.154;2022-07-23T09:21:28;11.60;;;7.78;;
4367;SDS011;43455;49.740;10.154;2022-07-23T09:26:37;12.50;;;8.77;;
4367;SDS011;43455;49.740;10.154;2022-07-23T09:31:54;9.35;;;7.57;;
4367;SDS011;43455;49.740;10.154;2022-07-23T09:36:47;12.52;;;7.38;;
4367;SDS011;43455;49.740;10.154;2022-07-23T09:39:14;12.80;;;7.40;;
4367;SDS011;43455;49.740;10.154;2022-07-23T09:41:44;12.45;;;7.22;;
4367;SDS011;43455;49.740;10.154;2022-07-23T09:44:12;8.23;;;7.15;;
4367;SDS011;43455;49.740;10.154;2022-07-23T09:46:44;11.98;;;8.50;;
4367;SDS011;43455;49.740;10.154;2022-07-23T09:49:14;12.20;;;7.40;;
4367;SDS011;43455;49.740;10.154;2022-07-23T09:51:50;11.07;;;7.55;;
4367;SDS011;43455;49.740;10.154;2022-07-23T09:56:54;14.18;;;7.85;;
4367;SDS011;43455;49.740;10.154;2022-07-23T09:59:26;8.15;;;7.35;;
4367;SDS011;43455;49.740;10.154;2022-07-23T10:01:55;11.48;;;7.75;;
4367;SDS011;43455;49.740;10.154;2022-07-23T10:04:24;12.20;;;8.00;;
4367;SDS011;43455;49.740;10.154;2022-07-23T10:07:10;11.55;;;7.80;;
4367;SDS011;43455;49.740;10.154;2022-07-23T10:09:54;9.20;;;7.70;;
4367;SDS011;43455;49.740;10.154;2022-07-23T10:12:41;9.73;;;7.00;;
4367;SDS011;43455;49.740;10.154;2022-07-23T10:15:27;8.38;;;6.30;;
4367;SDS011;43455;49.740;10.154;2022-07-23T10:17:54;8.93;;;8.02;;
4367;SDS011;43455;49.740;10.154;2022-07-23T10:20:20;17.05;;;8.02;;
4367;SDS011;43455;49.740;10.154;2022-07-23T10:25:39;9.90;;;7.75;;
4367;SDS011;43455;49.740;10.154;2022-07-23T10:31:09;8.80;;;7.38;;
4367;SDS011;43455;49.740;10.154;2022-07-23T10:36:29;12.02;;;8.23;;
4367;SDS011;43455;49.740;10.154;2022-07-23T10:39:05;10.88;;;7.38;;
4367;SDS011;43455;49.740;10.154;2022-07-23T10:41:40;11.43;;;7.80;;
4367;SDS011;43455;49.740;10.154;2022-07-23T10:46:34;7.50;;;6.72;;
4367;SDS011;43455;49.740;10.154;2022-07-23T10:49:23;7.53;;;6.72;;
4367;SDS011;43455;49.740;10.154;2022-07-23T10:57:52;11.45;;;7.63;;
4367;SDS011;43455;49.740;10.154;2022-07-23T11:00:22;8.50;;;6.70;;
4367;SDS011;43455;49.740;10.154;2022-07-23T11:02:50;10.40;;;7.40;;
4367;SDS011;43455;49.740;10.154;2022-07-23T11:05:18;12.15;;;7.70;;
4367;SDS011;43455;49.740;10.154;2022-07-23T11:13:25;11.30;;;7.28;;
4367;SDS011;43455;49.740;10.154;2022-07-23T11:23:59;8.10;;;7.25;;
4367;SDS011;43455;49.740;10.154;2022-07-23T11:32:01;10.95;;;6.97;;
4367;SDS011;43455;49.740;10.154;2022-07-23T11:37:02;8.70;;;6.55;;
4367;SDS011;43455;49.740;10.154;2022-07-23T11:39:30;8.88;;;6.80;;
4367;SDS011;43455;49.740;10.154;2022-07-23T11:41:56;8.88;;;6.47;;
4367;SDS011;43455;49.740;10.154;2022-07-23T11:47:02;17.27;;;7.32;;
4367;SDS011;43455;49.740;10.154;2022-07-23T11:49:37;7.97;;;7.18;;
4367;SDS011;43455;49.740;10.154;2022-07-23T11:57:26;8.85;;;7.47;;
4367;SDS011;43455;49.740;10.154;2022-07-23T12:00:07;8.50;;;7.55;;
4367;SDS011;43455;49.740;10.154;2022-07-23T12:02:48;8.43;;;7.35;;
4367;SDS011;43455;49.740;10.154;2022-07-23T12:05:29;7.25;;;6.55;;
4367;SDS011;43455;49.740;10.154;2022-07-23T12:07:57;8.57;;;6.82;;
4367;SDS011;43455;49.740;10.154;2022-07-23T12:10:25;7.85;;;7.05;;
4367;SDS011;43455;49.740;10.154;2022-07-23T12:12:53;10.60;;;7.78;;
4367;SDS011;43455;49.740;10.154;2022-07-23T12:15:21;11.48;;;6.95;;
4367;SDS011;43455;49.740;10.154;2022-07-23T12:17:50;9.93;;;6.70;;
4367;SDS011;43455;49.740;10.154;2022-07-23T12:20:17;9.60;;;7.20;;
4367;SDS011;43455;49.740;10.154;2022-07-23T12:22:48;9.57;;;7.25;;
4367;SDS011;43455;49.740;10.154;2022-07-23T12:25:16;9.27;;;7.35;;
4367;SDS011;43455;49.740;10.154;2022-07-23T12:27:44;8.95;;;7.22;;
4367;SDS011;43455;49.740;10.154;2022-07-23T12:30:17;8.02;;;6.55;;
4367;SDS011;43455;49.740;10.154;2022-07-23T12:32:45;12.95;;;7.30;;
4367;SDS011;43455;49.740;10.154;2022-07-23T12:35:14;13.43;;;7.35;;
4367;SDS011;43455;49.740;10.154;2022-07-23T12:37:41;7.05;;;6.35;;
4367;SDS011;43455;49.740;10.154;2022-07-23T12:42:57;7.13;;;6.35;;
4367;SDS011;43455;49.740;10.154;2022-07-23T12:45:28;9.52;;;5.88;;
4367;SDS011;43455;49.740;10.154;2022-07-23T12:48:06;7.25;;;6.32;;
4367;SDS011;43455;49.740;10.154;2022-07-23T12:50:54;9.55;;;6.90;;
4367;SDS011;43455;49.740;10.154;2022-07-23T12:56:22;8.30;;;5.88;;
4367;SDS011;43455;49.740;10.154;2022-07-23T12:58:54;7.38;;;6.60;;
4367;SDS011;43455;49.740;10.154;2022-07-23T13:04:07;9.50;;;6.68;;
4367;SDS011;43455;49.740;10.154;2022-07-23T13:06:41;8.35;;;6.70;;
4367;SDS011;43455;49.740;10.154;2022-07-23T13:09:16;7.43;;;6.65;;
4367;SDS011;43455;49.740;10.154;2022-07-23T13:11:44;7.50;;;6.47;;
4367;SDS011;43455;49.740;10.154;2022-07-23T13:14:11;8.98;;;7.13;;
4367;SDS011;43455;49.740;10.154;2022-07-23T13:16:38;11.70;;;7.32;;
4367;SDS011;43455;49.740;10.154;2022-07-23T13:19:04;9.70;;;6.82;;
4367;SDS011;43455;49.740;10.154;2022-07-23T13:21:31;8.38;;;6.60;;
4367;SDS011;43455;49.740;10.154;2022-07-23T13:23:57;9.65;;;7.47;;
4367;SDS011;43455;49.740;10.154;2022-07-23T13:26:23;6.35;;;5.75;;
4367;SDS011;43455;49.740;10.154;2022-07-23T13:28:49;8.10;;;6.20;;
4367;SDS011;43455;49.740;10.154;2022-07-23T13:33:41;7.35;;;6.60;;
4367;SDS011;43455;49.740;10.154;2022-07-23T13:36:07;9.10;;;6.75;;
4367;SDS011;43455;49.740;10.154;2022-07-23T13:38:33;7.57;;;6.80;;
4367;SDS011;43455;49.740;10.154;2022-07-23T13:40:58;10.18;;;7.13;;
4367;SDS011;43455;49.740;10.154;2022-07-23T13:43:24;7.35;;;6.43;;
4367;SDS011;43455;49.740;10.154;2022-07-23T13:45:51;9.45;;;6.40;;
4367;SDS011;43455;49.740;10.154;2022-07-23T13:48:17;8.93;;;6.88;;
4367;SDS011;43455;49.740;10.154;2022-07-23T13:53:11;8.63;;;6.80;;
4367;SDS011;43455;49.740;10.154;2022-07-23T13:55:39;7.13;;;6.43;;
4367;SDS011;43455;49.740;10.154;2022-07-23T13:58:05;10.82;;;6.97;;
4367;SDS011;43455;49.740;10.154;2022-07-23T14:00:32;6.45;;;5.85;;
4367;SDS011;43455;49.740;10.154;2022-07-23T14:02:59;11.23;;;6.97;;
4367;SDS011;43455;49.740;10.154;2022-07-23T14:07:51;10.32;;;6.72;;
4367;SDS011;43455;49.740;10.154;2022-07-23T14:10:19;14.50;;;7.07;;
4367;SDS011;43455;49.740;10.154;2022-07-23T14:13:06;8.27;;;6.85;;
4367;SDS011;43455;49.740;10.154;2022-07-23T14:15:32;8.13;;;6.82;;
4367;SDS011;43455;49.740;10.154;2022-07-23T14:17:58;7.82;;;6.07;;
4367;SDS011;43455;49.740;10.154;2022-07-23T14:20:24;12.23;;;6.70;;
4367;SDS011;43455;49.740;10.154;2022-07-23T14:22:50;8.15;;;6.70;;
4367;SDS011;43455;49.740;10.154;2022-07-23T14:25:19;8.65;;;6.28;;
4367;SDS011;43455;49.740;10.154;2022-07-23T14:30:21;8.60;;;7.40;;
4367;SDS011;43455;49.740;10.154;2022-07-23T14:32:48;8.68;;;7.07;;
4367;SDS011;43455;49.740;10.154;2022-07-23T14:37:40;9.23;;;7.82;;
4367;SDS011;43455;49.740;10.154;2022-07-23T14:40:06;9.48;;;7.75;;
4367;SDS011;43455;49.740;10.154;2022-07-23T14:44:58;8.05;;;6.65;;
4367;SDS011;43455;49.740;10.154;2022-07-23T14:47:24;7.60;;;6.82;;
4367;SDS011;43455;49.740;10.154;2022-07-23T14:55:07;10.48;;;7.40;;
4367;SDS011;43455;49.740;10.154;2022-07-23T14:57:42;7.15;;;5.93;;
4367;SDS011;43455;49.740;10.154;2022-07-23T15:00:08;10.57;;;6.70;;
4367;SDS011;43455;49.740;10.154;2022-07-23T15:02:37;11.65;;;6.28;;
4367;SDS011;43455;49.740;10.154;2022-07-23T15:05:06;13.85;;;7.20;;
4367;SDS011;43455;49.740;10.154;2022-07-23T15:10:08;10.75;;;6.53;;
4367;SDS011;43455;49.740;10.154;2022-07-23T17:07:40;5.13;;;4.60;;
4367;SDS011;43455;49.740;10.154;2022-07-23T17:10:08;5.13;;;4.47;;
4367;SDS011;43455;49.740;10.154;2022-07-23T17:15:03;5.93;;;4.75;;
4367;SDS011;43455;49.740;10.154;2022-07-23T17:17:30;4.68;;;4.28;;
4367;SDS011;43455;49.740;10.154;2022-07-23T17:19:56;4.82;;;4.15;;
4367;SDS011;43455;49.740;10.154;2022-07-23T17:27:25;10.70;;;5.38;;
4367;SDS011;43455;49.740;10.154;2022-07-23T17:29:52;14.48;;;4.57;;
4367;SDS011;43455;49.740;10.154;2022-07-23T17:34:59;5.93;;;4.90;;
4367;SDS011;43455;49.740;10.154;2022-07-23T17:37:25;6.63;;;4.63;;
4367;SDS011;43455;49.740;10.154;2022-07-23T17:47:45;7.63;;;5.97;;
4367;SDS011;43455;49.740;10.154;2022-07-23T17:50:14;6.50;;;4.63;;
4367;SDS011;43455;49.740;10.154;2022-07-23T17:55:17;7.60;;;4.78;;
4367;SDS011;43455;49.740;10.154;2022-07-23T17:57:44;7.63;;;4.70;;
4367;SDS011;43455;49.740;10.154;2022-07-23T18:02:55;5.25;;;4.18;;
4367;SDS011;43455;49.740;10.154;2022-07-23T18:05:30;5.82;;;4.57;;
4367;SDS011;43455;49.740;10.154;2022-07-23T18:31:36;5.25;;;3.90;;
4367;SDS011;43455;49.740;10.154;2022-07-23T18:36:45;5.22;;;4.10;;
4367;SDS011;43455;49.740;10.154;2022-07-23T18:49:55;5.88;;;4.53;;
4367;SDS011;43455;49.740;10.154;2022-07-23T21:36:59;17.27;;;8.00;;
4367;SDS011;43455;49.740;10.154;2022-07-23T22:08:20;50.88;;;22.27;;
4367;SDS011;43455;49.740;10.154;2022-07-23T22:10:49;36.50;;;17.85;;
4367;SDS011;43455;49.740;10.154;2022-07-23T23:10:40;14.02;;;9.43;;
4367;SDS011;43455;49.740;10.154;2022-07-23T23:20:55;12.55;;;7.57;;
